KBBW/BBW METAR and TAF weather

Enter ICAO airport designator
Station Type Date Time Source
KBBW METAR 2020/02/21 14:53 UTC NOAA

KBBW 211453Z AUTO 23010KT 10SM CLR M04/M11 A3030 RMK AO2 SLP292 T10391106 55009


Station Type Date Time Source
KBBW Decoded METAR 2020/02/21 14:53 UTC NOAA

BROKEN BOW MUNICIPAL AIRPORT, NE, United States (KBBW) 41-26N 099-38W
Feb 21, 2020 - 09:53 AM EST / 2020.02.21 1453 UTC
Wind: from the SW (230 degrees) at 12 MPH (10 KT):0
Visibility: 10 mile(s):0
Sky conditions: clear
Temperature: 25.0 F (-3.9 C)
Windchill: 14 F (-10 C):1
Dew Point: 12.9 F (-10.6 C)
Relative Humidity: 59%
Pressure (altimeter): 30.3 in. Hg (1026 hPa)
Pressure tendency: 0.03 inches (0.9 hPa) lower than three hours ago
ob: KBBW 211453Z AUTO 23010KT 10SM CLR M04/M11 A3030 RMK AO2 SLP292 T10391106 55009
cycle: 15

Station Type Date Time Source
KBBW TAF UTC NOAA

Error!

Example: see airport list